sensor_id;sensor_type;location;lat;lon;timestamp;temperature;humidity
64689;DHT22;62504;46.070;14.492;2023-10-13T00:00:28;16.50;99.90
64689;DHT22;62504;46.070;14.492;2023-10-13T00:03:02;16.40;99.90
64689;DHT22;62504;46.070;14.492;2023-10-13T00:05:31;16.40;99.90
64689;DHT22;62504;46.070;14.492;2023-10-13T00:07:59;16.40;99.90
64689;DHT22;62504;46.070;14.492;2023-10-13T00:10:31;16.40;99.90
64689;DHT22;62504;46.070;14.492;2023-10-13T00:12:57;16.40;99.90
64689;DHT22;62504;46.070;14.492;2023-10-13T00:15:52;16.30;99.90
64689;DHT22;62504;46.070;14.492;2023-10-13T00:18:26;16.20;99.90
64689;DHT22;62504;46.070;14.492;2023-10-13T00:20:53;16.30;99.90
64689;DHT22;62504;46.070;14.492;2023-10-13T00:23:22;16.20;99.90
64689;DHT22;62504;46.070;14.492;2023-10-13T00:25:49;16.20;99.90
64689;DHT22;62504;46.070;14.492;2023-10-13T00:28:16;16.20;99.90
64689;DHT22;62504;46.070;14.492;2023-10-13T00:30:52;16.20;99.90
64689;DHT22;62504;46.070;14.492;2023-10-13T00:33:26;16.20;99.90
64689;DHT22;62504;46.070;14.492;2023-10-13T00:35:52;16.20;99.90
64689;DHT22;62504;46.070;14.492;2023-10-13T00:38:18;16.20;99.90
64689;DHT22;62504;46.070;14.492;2023-10-13T00:40:48;16.20;99.90
64689;DHT22;62504;46.070;14.492;2023-10-13T00:43:21;16.20;99.90
64689;DHT22;62504;46.070;14.492;2023-10-13T00:45:54;16.30;99.90
64689;DHT22;62504;46.070;14.492;2023-10-13T00:48:24;16.20;99.90
64689;DHT22;62504;46.070;14.492;2023-10-13T00:50:58;16.20;99.90
64689;DHT22;62504;46.070;14.492;2023-10-13T00:53:34;16.20;99.90
64689;DHT22;62504;46.070;14.492;2023-10-13T00:56:06;16.20;99.90
64689;DHT22;62504;46.070;14.492;2023-10-13T00:58:33;16.10;99.90
64689;DHT22;62504;46.070;14.492;2023-10-13T01:01:02;16.10;99.90
64689;DHT22;62504;46.070;14.492;2023-10-13T01:03:45;16.10;99.90
64689;DHT22;62504;46.070;14.492;2023-10-13T01:06:14;16.10;99.90
64689;DHT22;62504;46.070;14.492;2023-10-13T01:08:44;16.10;99.90
64689;DHT22;62504;46.070;14.492;2023-10-13T01:11:10;16.20;99.90
64689;DHT22;62504;46.070;14.492;2023-10-13T01:13:36;16.10;99.90
64689;DHT22;62504;46.070;14.492;2023-10-13T01:16:03;16.10;99.90
64689;DHT22;62504;46.070;14.492;2023-10-13T01:18:29;16.10;99.90
64689;DHT22;62504;46.070;14.492;2023-10-13T01:20:55;16.10;99.90
64689;DHT22;62504;46.070;14.492;2023-10-13T01:23:28;16.10;99.90
64689;DHT22;62504;46.070;14.492;2023-10-13T01:25:54;16.10;99.90
64689;DHT22;62504;46.070;14.492;2023-10-13T01:28:22;16.10;99.90
64689;DHT22;62504;46.070;14.492;2023-10-13T01:30:49;16.10;99.90
64689;DHT22;62504;46.070;14.492;2023-10-13T01:33:18;16.10;99.90
64689;DHT22;62504;46.070;14.492;2023-10-13T01:36:02;16.10;99.90
64689;DHT22;62504;46.070;14.492;2023-10-13T01:38:32;16.10;99.90
64689;DHT22;62504;46.070;14.492;2023-10-13T01:40:58;16.00;99.90
64689;DHT22;62504;46.070;14.492;2023-10-13T01:43:24;16.00;99.90
64689;DHT22;62504;46.070;14.492;2023-10-13T01:45:50;16.00;99.90
64689;DHT22;62504;46.070;14.492;2023-10-13T01:48:16;16.10;99.90
64689;DHT22;62504;46.070;14.492;2023-10-13T01:50:47;16.00;99.90
64689;DHT22;62504;46.070;14.492;2023-10-13T01:53:25;16.00;99.90
64689;DHT22;62504;46.070;14.492;2023-10-13T01:55:54;16.00;99.90
64689;DHT22;62504;46.070;14.492;2023-10-13T01:58:23;16.00;99.90
64689;DHT22;62504;46.070;14.492;2023-10-13T02:00:50;15.90;99.90
64689;DHT22;62504;46.070;14.492;2023-10-13T02:03:16;16.00;99.90
64689;DHT22;62504;46.070;14.492;2023-10-13T02:05:46;16.00;99.90
64689;DHT22;62504;46.070;14.492;2023-10-13T02:08:22;15.90;99.90
64689;DHT22;62504;46.070;14.492;2023-10-13T02:13:17;15.90;99.90
64689;DHT22;62504;46.070;14.492;2023-10-13T02:15:46;15.90;99.90
64689;DHT22;62504;46.070;14.492;2023-10-13T02:18:18;15.80;99.90
64689;DHT22;62504;46.070;14.492;2023-10-13T02:20:49;15.80;99.90
64689;DHT22;62504;46.070;14.492;2023-10-13T02:23:24;15.80;99.90
64689;DHT22;62504;46.070;14.492;2023-10-13T02:25:56;15.80;99.90
64689;DHT22;62504;46.070;14.492;2023-10-13T02:28:36;15.90;99.90
64689;DHT22;62504;46.070;14.492;2023-10-13T02:31:05;15.80;99.90
64689;DHT22;62504;46.070;14.492;2023-10-13T02:33:32;15.80;99.90
64689;DHT22;62504;46.070;14.492;2023-10-13T02:35:59;15.80;99.90
64689;DHT22;62504;46.070;14.492;2023-10-13T02:38:28;15.80;99.90
64689;DHT22;62504;46.070;14.492;2023-10-13T02:41:01;15.80;99.90
64689;DHT22;62504;46.070;14.492;2023-10-13T02:43:34;15.70;99.90
64689;DHT22;62504;46.070;14.492;2023-10-13T02:46:00;15.70;99.90
64689;DHT22;62504;46.070;14.492;2023-10-13T02:48:27;15.70;99.90
64689;DHT22;62504;46.070;14.492;2023-10-13T02:50:59;15.70;99.90
64689;DHT22;62504;46.070;14.492;2023-10-13T02:53:31;15.70;99.90
64689;DHT22;62504;46.070;14.492;2023-10-13T02:55:56;15.70;99.90
64689;DHT22;62504;46.070;14.492;2023-10-13T02:58:29;15.70;99.90
64689;DHT22;62504;46.070;14.492;2023-10-13T03:01:07;15.70;99.90
64689;DHT22;62504;46.070;14.492;2023-10-13T03:03:47;15.60;99.90
64689;DHT22;62504;46.070;14.492;2023-10-13T03:06:15;15.60;99.90
64689;DHT22;62504;46.070;14.492;2023-10-13T03:08:41;15.60;99.90
64689;DHT22;62504;46.070;14.492;2023-10-13T03:11:09;15.60;99.90
64689;DHT22;62504;46.070;14.492;2023-10-13T03:13:35;15.60;99.90
64689;DHT22;62504;46.070;14.492;2023-10-13T03:16:11;15.50;99.90
64689;DHT22;62504;46.070;14.492;2023-10-13T03:18:37;15.50;99.90
64689;DHT22;62504;46.070;14.492;2023-10-13T03:21:03;15.50;99.90
64689;DHT22;62504;46.070;14.492;2023-10-13T03:23:29;15.50;99.90
64689;DHT22;62504;46.070;14.492;2023-10-13T03:26:10;15.40;99.90
64689;DHT22;62504;46.070;14.492;2023-10-13T03:28:36;15.40;99.90
64689;DHT22;62504;46.070;14.492;2023-10-13T03:31:03;15.40;99.90
64689;DHT22;62504;46.070;14.492;2023-10-13T03:33:29;15.30;99.90
64689;DHT22;62504;46.070;14.492;2023-10-13T03:36:01;15.20;99.90
64689;DHT22;62504;46.070;14.492;2023-10-13T03:38:31;15.20;99.90
64689;DHT22;62504;46.070;14.492;2023-10-13T03:41:02;15.30;99.90
64689;DHT22;62504;46.070;14.492;2023-10-13T03:43:43;15.30;99.90
64689;DHT22;62504;46.070;14.492;2023-10-13T03:46:17;15.20;99.90
64689;DHT22;62504;46.070;14.492;2023-10-13T03:48:47;15.30;99.90
64689;DHT22;62504;46.070;14.492;2023-10-13T03:51:20;15.30;99.90
64689;DHT22;62504;46.070;14.492;2023-10-13T03:53:46;15.30;99.90
64689;DHT22;62504;46.070;14.492;2023-10-13T03:56:24;15.40;99.90
64689;DHT22;62504;46.070;14.492;2023-10-13T03:59:10;15.30;99.90
64689;DHT22;62504;46.070;14.492;2023-10-13T04:01:44;15.20;99.90
64689;DHT22;62504;46.070;14.492;2023-10-13T04:04:24;15.20;99.90
64689;DHT22;62504;46.070;14.492;2023-10-13T04:07:08;15.20;99.90
64689;DHT22;62504;46.070;14.492;2023-10-13T04:09:38;15.20;99.90
64689;DHT22;62504;46.070;14.492;2023-10-13T04:12:13;15.10;99.90
64689;DHT22;62504;46.070;14.492;2023-10-13T04:14:43;15.20;99.90
64689;DHT22;62504;46.070;14.492;2023-10-13T04:17:18;15.10;99.90
64689;DHT22;62504;46.070;14.492;2023-10-13T04:19:56;15.20;99.90
64689;DHT22;62504;46.070;14.492;2023-10-13T04:25:12;15.20;99.90
64689;DHT22;62504;46.070;14.492;2023-10-13T04:27:56;15.20;99.90
64689;DHT22;62504;46.070;14.492;2023-10-13T04:30:48;15.20;99.90
64689;DHT22;62504;46.070;14.492;2023-10-13T04:33:19;15.10;99.90
64689;DHT22;62504;46.070;14.492;2023-10-13T04:36:14;15.10;99.90
64689;DHT22;62504;46.070;14.492;2023-10-13T04:38:43;15.00;99.90
64689;DHT22;62504;46.070;14.492;2023-10-13T04:41:26;15.00;99.90
64689;DHT22;62504;46.070;14.492;2023-10-13T04:44:08;14.90;99.90
64689;DHT22;62504;46.070;14.492;2023-10-13T04:46:54;15.00;99.90
64689;DHT22;62504;46.070;14.492;2023-10-13T04:49:34;15.00;99.90
64689;DHT22;62504;46.070;14.492;2023-10-13T04:52:02;14.90;99.90
64689;DHT22;62504;46.070;14.492;2023-10-13T04:54:37;15.00;99.90
64689;DHT22;62504;46.070;14.492;2023-10-13T04:57:24;14.90;99.90
64689;DHT22;62504;46.070;14.492;2023-10-13T05:00:21;14.90;99.90
64689;DHT22;62504;46.070;14.492;2023-10-13T05:02:47;14.90;99.90
64689;DHT22;62504;46.070;14.492;2023-10-13T05:05:26;15.00;99.90
64689;DHT22;62504;46.070;14.492;2023-10-13T05:08:11;15.00;99.90
64689;DHT22;62504;46.070;14.492;2023-10-13T05:10:55;15.00;99.90
64689;DHT22;62504;46.070;14.492;2023-10-13T05:13:39;15.00;99.90
64689;DHT22;62504;46.070;14.492;2023-10-13T05:16:23;14.90;99.90
64689;DHT22;62504;46.070;14.492;2023-10-13T05:19:07;14.80;99.90
64689;DHT22;62504;46.070;14.492;2023-10-13T05:21:51;14.80;99.90
64689;DHT22;62504;46.070;14.492;2023-10-13T05:24:35;14.80;99.90
64689;DHT22;62504;46.070;14.492;2023-10-13T05:27:19;14.70;99.90
64689;DHT22;62504;46.070;14.492;2023-10-13T05:30:04;14.70;99.90
64689;DHT22;62504;46.070;14.492;2023-10-13T05:32:48;14.70;99.90
64689;DHT22;62504;46.070;14.492;2023-10-13T05:35:32;14.80;99.90
64689;DHT22;62504;46.070;14.492;2023-10-13T05:38:16;14.80;99.90
64689;DHT22;62504;46.070;14.492;2023-10-13T05:41:05;14.80;99.90
64689;DHT22;62504;46.070;14.492;2023-10-13T05:43:49;14.90;99.90
64689;DHT22;62504;46.070;14.492;2023-10-13T05:46:34;15.00;99.90
64689;DHT22;62504;46.070;14.492;2023-10-13T05:49:15;15.10;99.90
64689;DHT22;62504;46.070;14.492;2023-10-13T05:51:41;15.00;99.90
64689;DHT22;62504;46.070;14.492;2023-10-13T05:54:07;15.10;99.90
64689;DHT22;62504;46.070;14.492;2023-10-13T05:59:27;15.00;99.90
64689;DHT22;62504;46.070;14.492;2023-10-13T06:02:14;15.10;99.90
64689;DHT22;62504;46.070;14.492;2023-10-13T06:05:00;15.10;99.90
64689;DHT22;62504;46.070;14.492;2023-10-13T06:07:45;15.10;99.90
64689;DHT22;62504;46.070;14.492;2023-10-13T06:10:29;15.20;99.90
64689;DHT22;62504;46.070;14.492;2023-10-13T06:13:13;15.20;99.90
64689;DHT22;62504;46.070;14.492;2023-10-13T06:15:57;15.30;99.90
64689;DHT22;62504;46.070;14.492;2023-10-13T06:18:41;15.40;99.90
64689;DHT22;62504;46.070;14.492;2023-10-13T06:21:25;15.30;99.90
64689;DHT22;62504;46.070;14.492;2023-10-13T06:24:09;15.20;99.90
64689;DHT22;62504;46.070;14.492;2023-10-13T06:26:54;15.10;99.90
64689;DHT22;62504;46.070;14.492;2023-10-13T06:29:38;15.10;99.90
64689;DHT22;62504;46.070;14.492;2023-10-13T06:32:03;15.10;99.90
64689;DHT22;62504;46.070;14.492;2023-10-13T06:34:36;15.10;99.90
64689;DHT22;62504;46.070;14.492;2023-10-13T06:37:12;15.30;99.90
64689;DHT22;62504;46.070;14.492;2023-10-13T06:39:52;15.20;99.90
64689;DHT22;62504;46.070;14.492;2023-10-13T06:42:38;15.20;99.90
64689;DHT22;62504;46.070;14.492;2023-10-13T06:45:08;15.20;99.90
64689;DHT22;62504;46.070;14.492;2023-10-13T06:47:37;15.30;99.90
64689;DHT22;62504;46.070;14.492;2023-10-13T06:50:09;15.30;99.90
64689;DHT22;62504;46.070;14.492;2023-10-13T06:52:47;15.40;99.90
64689;DHT22;62504;46.070;14.492;2023-10-13T06:55:13;15.40;99.90
64689;DHT22;62504;46.070;14.492;2023-10-13T06:57:59;15.60;99.90
64689;DHT22;62504;46.070;14.492;2023-10-13T07:00:28;15.70;99.90
64689;DHT22;62504;46.070;14.492;2023-10-13T07:02:56;15.90;99.90
64689;DHT22;62504;46.070;14.492;2023-10-13T07:05:40;16.10;99.90
64689;DHT22;62504;46.070;14.492;2023-10-13T07:08:09;16.20;99.90
64689;DHT22;62504;46.070;14.492;2023-10-13T07:10:51;16.20;99.90
64689;DHT22;62504;46.070;14.492;2023-10-13T07:13:18;16.40;99.90
64689;DHT22;62504;46.070;14.492;2023-10-13T07:15:45;16.50;99.90
64689;DHT22;62504;46.070;14.492;2023-10-13T07:18:15;16.60;99.90
64689;DHT22;62504;46.070;14.492;2023-10-13T07:20:43;16.70;99.90
64689;DHT22;62504;46.070;14.492;2023-10-13T07:23:14;16.80;99.90
64689;DHT22;62504;46.070;14.492;2023-10-13T07:25:52;16.80;99.90
64689;DHT22;62504;46.070;14.492;2023-10-13T07:28:19;16.80;99.90
64689;DHT22;62504;46.070;14.492;2023-10-13T07:30:44;17.00;99.90
64689;DHT22;62504;46.070;14.492;2023-10-13T07:33:33;17.10;99.90
64689;DHT22;62504;46.070;14.492;2023-10-13T07:36:02;17.30;99.90
64689;DHT22;62504;46.070;14.492;2023-10-13T07:38:37;17.40;99.90
64689;DHT22;62504;46.070;14.492;2023-10-13T07:41:03;17.50;99.90
64689;DHT22;62504;46.070;14.492;2023-10-13T07:43:35;17.50;99.90
64689;DHT22;62504;46.070;14.492;2023-10-13T07:46:04;17.60;99.90
64689;DHT22;62504;46.070;14.492;2023-10-13T07:48:36;17.70;99.90
64689;DHT22;62504;46.070;14.492;2023-10-13T07:51:04;17.80;99.90
64689;DHT22;62504;46.070;14.492;2023-10-13T07:53:31;18.00;99.90
64689;DHT22;62504;46.070;14.492;2023-10-13T07:56:03;18.10;99.90
64689;DHT22;62504;46.070;14.492;2023-10-13T07:58:34;18.30;99.90
64689;DHT22;62504;46.070;14.492;2023-10-13T08:01:04;18.40;99.90
64689;DHT22;62504;46.070;14.492;2023-10-13T08:03:35;18.50;99.90
64689;DHT22;62504;46.070;14.492;2023-10-13T08:06:12;18.50;99.90
64689;DHT22;62504;46.070;14.492;2023-10-13T08:08:38;18.60;99.90
64689;DHT22;62504;46.070;14.492;2023-10-13T08:11:11;18.70;99.90
64689;DHT22;62504;46.070;14.492;2023-10-13T08:13:50;18.60;99.90
64689;DHT22;62504;46.070;14.492;2023-10-13T08:16:31;18.70;99.90
64689;DHT22;62504;46.070;14.492;2023-10-13T08:19:17;18.70;99.90
64689;DHT22;62504;46.070;14.492;2023-10-13T08:21:43;18.70;99.90
64689;DHT22;62504;46.070;14.492;2023-10-13T08:24:17;18.80;99.90
64689;DHT22;62504;46.070;14.492;2023-10-13T08:26:51;19.00;99.90
64689;DHT22;62504;46.070;14.492;2023-10-13T08:29:24;19.20;99.90
64689;DHT22;62504;46.070;14.492;2023-10-13T08:31:55;19.40;99.90
64689;DHT22;62504;46.070;14.492;2023-10-13T08:34:40;19.60;99.90
64689;DHT22;62504;46.070;14.492;2023-10-13T08:37:09;19.90;99.90
64689;DHT22;62504;46.070;14.492;2023-10-13T08:39:51;20.20;99.90
64689;DHT22;62504;46.070;14.492;2023-10-13T08:42:43;20.40;99.90
64689;DHT22;62504;46.070;14.492;2023-10-13T08:47:59;20.50;99.90
64689;DHT22;62504;46.070;14.492;2023-10-13T08:50:49;20.70;99.90
64689;DHT22;62504;46.070;14.492;2023-10-13T08:53:26;21.10;99.90
64689;DHT22;62504;46.070;14.492;2023-10-13T08:56:04;21.40;99.90
64689;DHT22;62504;46.070;14.492;2023-10-13T08:58:37;21.50;99.90
64689;DHT22;62504;46.070;14.492;2023-10-13T09:04:20;21.90;99.90
64689;DHT22;62504;46.070;14.492;2023-10-13T09:12:19;22.30;99.90
64689;DHT22;62504;46.070;14.492;2023-10-13T09:14:54;22.40;99.90
64689;DHT22;62504;46.070;14.492;2023-10-13T09:17:26;22.60;99.90
64689;DHT22;62504;46.070;14.492;2023-10-13T09:20:05;22.90;99.90
64689;DHT22;62504;46.070;14.492;2023-10-13T09:22:59;23.20;99.90
64689;DHT22;62504;46.070;14.492;2023-10-13T09:25:34;23.40;99.90
64689;DHT22;62504;46.070;14.492;2023-10-13T09:28:14;23.60;99.90
64689;DHT22;62504;46.070;14.492;2023-10-13T09:30:58;23.50;99.90
64689;DHT22;62504;46.070;14.492;2023-10-13T09:33:28;23.50;99.90
64689;DHT22;62504;46.070;14.492;2023-10-13T09:36:13;23.40;99.90
64689;DHT22;62504;46.070;14.492;2023-10-13T09:38:39;23.20;99.90
64689;DHT22;62504;46.070;14.492;2023-10-13T09:41:07;23.20;99.90
64689;DHT22;62504;46.070;14.492;2023-10-13T09:43:52;23.20;99.90
64689;DHT22;62504;46.070;14.492;2023-10-13T09:46:21;23.20;99.90
64689;DHT22;62504;46.070;14.492;2023-10-13T09:48:57;23.20;99.90
64689;DHT22;62504;46.070;14.492;2023-10-13T09:51:40;23.00;99.90
64689;DHT22;62504;46.070;14.492;2023-10-13T09:54:33;22.50;99.90
64689;DHT22;62504;46.070;14.492;2023-10-13T09:57:15;22.20;99.90
64689;DHT22;62504;46.070;14.492;2023-10-13T09:59:57;22.00;99.90
64689;DHT22;62504;46.070;14.492;2023-10-13T10:02:31;22.00;99.90
64689;DHT22;62504;46.070;14.492;2023-10-13T10:04:58;22.00;99.90
64689;DHT22;62504;46.070;14.492;2023-10-13T10:07:42;22.00;99.90
64689;DHT22;62504;46.070;14.492;2023-10-13T10:10:21;22.00;99.90
64689;DHT22;62504;46.070;14.492;2023-10-13T10:13:01;22.20;99.90
64689;DHT22;62504;46.070;14.492;2023-10-13T10:15:35;22.20;99.90
64689;DHT22;62504;46.070;14.492;2023-10-13T10:18:21;22.20;99.90
64689;DHT22;62504;46.070;14.492;2023-10-13T10:21:03;22.30;99.90
64689;DHT22;62504;46.070;14.492;2023-10-13T10:23:33;22.20;99.90
64689;DHT22;62504;46.070;14.492;2023-10-13T10:26:14;22.10;99.90
64689;DHT22;62504;46.070;14.492;2023-10-13T10:28:42;22.10;99.90
64689;DHT22;62504;46.070;14.492;2023-10-13T10:31:10;22.20;99.90
64689;DHT22;62504;46.070;14.492;2023-10-13T10:33:41;22.30;99.90
64689;DHT22;62504;46.070;14.492;2023-10-13T10:36:07;22.30;99.90
64689;DHT22;62504;46.070;14.492;2023-10-13T10:38:58;22.40;99.90
64689;DHT22;62504;46.070;14.492;2023-10-13T10:41:30;22.40;99.90
64689;DHT22;62504;46.070;14.492;2023-10-13T10:44:13;22.40;99.90
64689;DHT22;62504;46.070;14.492;2023-10-13T10:46:43;22.30;99.90
64689;DHT22;62504;46.070;14.492;2023-10-13T10:49:19;22.30;99.90
64689;DHT22;62504;46.070;14.492;2023-10-13T10:51:59;22.40;99.90
64689;DHT22;62504;46.070;14.492;2023-10-13T10:54:31;22.50;99.90
64689;DHT22;62504;46.070;14.492;2023-10-13T10:57:00;22.50;99.90
64689;DHT22;62504;46.070;14.492;2023-10-13T10:59:43;22.50;99.90
64689;DHT22;62504;46.070;14.492;2023-10-13T11:02:09;22.50;99.90
64689;DHT22;62504;46.070;14.492;2023-10-13T11:04:41;22.50;99.90
64689;DHT22;62504;46.070;14.492;2023-10-13T11:07:21;22.50;99.90
64689;DHT22;62504;46.070;14.492;2023-10-13T11:09:48;22.50;99.90
64689;DHT22;62504;46.070;14.492;2023-10-13T11:12:18;22.60;99.90
64689;DHT22;62504;46.070;14.492;2023-10-13T11:15:04;22.60;99.90
64689;DHT22;62504;46.070;14.492;2023-10-13T11:17:51;22.70;99.90
64689;DHT22;62504;46.070;14.492;2023-10-13T11:20:20;22.80;99.90
64689;DHT22;62504;46.070;14.492;2023-10-13T11:22:59;22.80;99.90
64689;DHT22;62504;46.070;14.492;2023-10-13T11:25:31;22.70;99.90
64689;DHT22;62504;46.070;14.492;2023-10-13T11:28:20;22.70;99.90
64689;DHT22;62504;46.070;14.492;2023-10-13T11:30:46;22.60;99.90
64689;DHT22;62504;46.070;14.492;2023-10-13T11:33:16;22.70;99.90
64689;DHT22;62504;46.070;14.492;2023-10-13T11:35:52;22.80;99.90
64689;DHT22;62504;46.070;14.492;2023-10-13T11:41:01;22.80;99.90
64689;DHT22;62504;46.070;14.492;2023-10-13T11:43:48;22.70;99.90
64689;DHT22;62504;46.070;14.492;2023-10-13T11:46:26;22.70;99.90
64689;DHT22;62504;46.070;14.492;2023-10-13T11:49:20;22.70;99.90
64689;DHT22;62504;46.070;14.492;2023-10-13T11:52:06;22.70;99.90
64689;DHT22;62504;46.070;14.492;2023-10-13T11:54:42;22.70;99.90
64689;DHT22;62504;46.070;14.492;2023-10-13T11:57:08;22.70;99.90
64689;DHT22;62504;46.070;14.492;2023-10-13T11:59:34;22.60;99.90
64689;DHT22;62504;46.070;14.492;2023-10-13T12:02:06;22.60;99.90
64689;DHT22;62504;46.070;14.492;2023-10-13T12:04:50;22.70;99.90
64689;DHT22;62504;46.070;14.492;2023-10-13T12:07:21;22.70;99.90
64689;DHT22;62504;46.070;14.492;2023-10-13T12:10:06;22.70;99.90
64689;DHT22;62504;46.070;14.492;2023-10-13T12:12:40;22.60;99.90
64689;DHT22;62504;46.070;14.492;2023-10-13T12:15:09;22.60;99.90
64689;DHT22;62504;46.070;14.492;2023-10-13T12:17:35;22.60;99.90
64689;DHT22;62504;46.070;14.492;2023-10-13T12:20:06;22.60;99.90
64689;DHT22;62504;46.070;14.492;2023-10-13T12:22:38;22.50;99.90
64689;DHT22;62504;46.070;14.492;2023-10-13T12:25:24;22.50;99.90
64689;DHT22;62504;46.070;14.492;2023-10-13T12:27:58;22.50;99.90
64689;DHT22;62504;46.070;14.492;2023-10-13T12:30:41;22.50;99.90
64689;DHT22;62504;46.070;14.492;2023-10-13T12:33:22;22.50;99.90
64689;DHT22;62504;46.070;14.492;2023-10-13T12:36:01;22.50;99.90
64689;DHT22;62504;46.070;14.492;2023-10-13T12:38:39;22.60;99.90
64689;DHT22;62504;46.070;14.492;2023-10-13T12:41:18;22.60;99.90
64689;DHT22;62504;46.070;14.492;2023-10-13T12:44:04;22.60;99.90
64689;DHT22;62504;46.070;14.492;2023-10-13T12:46:48;22.60;99.90
64689;DHT22;62504;46.070;14.492;2023-10-13T12:49:33;22.50;99.90
64689;DHT22;62504;46.070;14.492;2023-10-13T12:52:12;22.60;99.90
64689;DHT22;62504;46.070;14.492;2023-10-13T12:54:57;22.50;99.90
64689;DHT22;62504;46.070;14.492;2023-10-13T12:57:27;22.60;99.90
64689;DHT22;62504;46.070;14.492;2023-10-13T12:59:53;22.60;99.90
64689;DHT22;62504;46.070;14.492;2023-10-13T13:02:25;22.50;99.90
64689;DHT22;62504;46.070;14.492;2023-10-13T13:04:52;22.50;99.90
64689;DHT22;62504;46.070;14.492;2023-10-13T13:07:38;22.60;99.90
64689;DHT22;62504;46.070;14.492;2023-10-13T13:10:14;22.60;99.90
64689;DHT22;62504;46.070;14.492;2023-10-13T13:12:43;22.50;99.90
64689;DHT22;62504;46.070;14.492;2023-10-13T13:15:09;22.50;99.90
64689;DHT22;62504;46.070;14.492;2023-10-13T13:17:36;22.50;99.90
64689;DHT22;62504;46.070;14.492;2023-10-13T13:20:02;22.50;99.90
64689;DHT22;62504;46.070;14.492;2023-10-13T13:22:39;22.50;99.90
64689;DHT22;62504;46.070;14.492;2023-10-13T13:25:05;22.50;99.90
64689;DHT22;62504;46.070;14.492;2023-10-13T13:27:35;22.50;99.90
64689;DHT22;62504;46.070;14.492;2023-10-13T13:30:02;22.50;99.90
64689;DHT22;62504;46.070;14.492;2023-10-13T13:32:37;22.50;99.90
64689;DHT22;62504;46.070;14.492;2023-10-13T13:35:03;22.40;99.90
64689;DHT22;62504;46.070;14.492;2023-10-13T13:37:33;22.40;99.90
64689;DHT22;62504;46.070;14.492;2023-10-13T13:39:59;22.40;99.90
64689;DHT22;62504;46.070;14.492;2023-10-13T13:42:41;22.30;99.90
64689;DHT22;62504;46.070;14.492;2023-10-13T13:45:18;22.30;99.90
64689;DHT22;62504;46.070;14.492;2023-10-13T13:47:52;22.30;99.90
64689;DHT22;62504;46.070;14.492;2023-10-13T13:50:23;22.30;99.90
64689;DHT22;62504;46.070;14.492;2023-10-13T13:52:51;22.20;99.90
64689;DHT22;62504;46.070;14.492;2023-10-13T13:55:20;22.20;99.90
64689;DHT22;62504;46.070;14.492;2023-10-13T13:57:45;22.10;99.90
64689;DHT22;62504;46.070;14.492;2023-10-13T14:00:12;22.20;99.90
64689;DHT22;62504;46.070;14.492;2023-10-13T14:03:05;22.10;99.90
64689;DHT22;62504;46.070;14.492;2023-10-13T14:05:40;22.10;99.90
64689;DHT22;62504;46.070;14.492;2023-10-13T14:08:06;22.10;99.90
64689;DHT22;62504;46.070;14.492;2023-10-13T14:10:37;22.00;99.90
64689;DHT22;62504;46.070;14.492;2023-10-13T14:13:23;22.00;99.90
64689;DHT22;62504;46.070;14.492;2023-10-13T14:16:09;22.00;99.90
64689;DHT22;62504;46.070;14.492;2023-10-13T14:18:43;21.90;99.90
64689;DHT22;62504;46.070;14.492;2023-10-13T14:21:08;21.90;99.90
64689;DHT22;62504;46.070;14.492;2023-10-13T14:23:34;21.80;99.90
64689;DHT22;62504;46.070;14.492;2023-10-13T14:26:00;21.80;99.90
64689;DHT22;62504;46.070;14.492;2023-10-13T14:28:26;21.80;99.90
64689;DHT22;62504;46.070;14.492;2023-10-13T14:31:04;21.90;99.90
64689;DHT22;62504;46.070;14.492;2023-10-13T14:33:35;21.80;99.90
64689;DHT22;62504;46.070;14.492;2023-10-13T14:36:03;21.80;99.90
64689;DHT22;62504;46.070;14.492;2023-10-13T14:38:30;21.80;99.90
64689;DHT22;62504;46.070;14.492;2023-10-13T14:40:59;21.80;99.90
64689;DHT22;62504;46.070;14.492;2023-10-13T14:43:25;21.70;99.90
64689;DHT22;62504;46.070;14.492;2023-10-13T14:45:53;21.70;99.90
64689;DHT22;62504;46.070;14.492;2023-10-13T14:48:19;21.70;99.90
64689;DHT22;62504;46.070;14.492;2023-10-13T14:50:45;21.70;99.90
64689;DHT22;62504;46.070;14.492;2023-10-13T14:53:11;21.70;99.90
64689;DHT22;62504;46.070;14.492;2023-10-13T14:55:36;21.60;99.90
64689;DHT22;62504;46.070;14.492;2023-10-13T14:58:05;21.60;99.90
64689;DHT22;62504;46.070;14.492;2023-10-13T15:00:33;21.60;99.90
64689;DHT22;62504;46.070;14.492;2023-10-13T15:03:00;21.60;99.90
64689;DHT22;62504;46.070;14.492;2023-10-13T15:05:31;21.60;99.90
64689;DHT22;62504;46.070;14.492;2023-10-13T15:07:58;21.70;99.90
64689;DHT22;62504;46.070;14.492;2023-10-13T15:10:25;21.60;99.90
64689;DHT22;62504;46.070;14.492;2023-10-13T15:12:51;21.60;99.90
64689;DHT22;62504;46.070;14.492;2023-10-13T15:15:17;21.50;99.90
64689;DHT22;62504;46.070;14.492;2023-10-13T15:17:45;21.50;99.90
64689;DHT22;62504;46.070;14.492;2023-10-13T15:20:11;21.40;99.90
64689;DHT22;62504;46.070;14.492;2023-10-13T15:22:46;21.50;99.90
64689;DHT22;62504;46.070;14.492;2023-10-13T15:25:15;21.40;99.90
64689;DHT22;62504;46.070;14.492;2023-10-13T15:27:56;21.40;99.90
64689;DHT22;62504;46.070;14.492;2023-10-13T15:30:25;21.30;99.90
64689;DHT22;62504;46.070;14.492;2023-10-13T15:33:10;21.30;99.90
64689;DHT22;62504;46.070;14.492;2023-10-13T15:35:38;21.30;99.90
64689;DHT22;62504;46.070;14.492;2023-10-13T15:38:04;21.30;99.90
64689;DHT22;62504;46.070;14.492;2023-10-13T15:40:32;21.30;99.90
64689;DHT22;62504;46.070;14.492;2023-10-13T15:42:57;21.20;99.90
64689;DHT22;62504;46.070;14.492;2023-10-13T15:45:25;21.10;99.90
64689;DHT22;62504;46.070;14.492;2023-10-13T15:47:58;21.10;99.90
64689;DHT22;62504;46.070;14.492;2023-10-13T15:50:23;21.10;99.90
64689;DHT22;62504;46.070;14.492;2023-10-13T15:52:49;21.00;99.90
64689;DHT22;62504;46.070;14.492;2023-10-13T15:55:16;21.00;99.90
64689;DHT22;62504;46.070;14.492;2023-10-13T15:57:45;21.00;99.90
64689;DHT22;62504;46.070;14.492;2023-10-13T16:00:18;21.10;99.90
64689;DHT22;62504;46.070;14.492;2023-10-13T16:02:53;21.00;99.90
64689;DHT22;62504;46.070;14.492;2023-10-13T16:05:23;20.90;99.90
64689;DHT22;62504;46.070;14.492;2023-10-13T16:07:51;20.80;99.90
64689;DHT22;62504;46.070;14.492;2023-10-13T16:10:21;20.80;99.90
64689;DHT22;62504;46.070;14.492;2023-10-13T16:12:46;20.80;99.90
64689;DHT22;62504;46.070;14.492;2023-10-13T16:15:12;20.80;99.90
64689;DHT22;62504;46.070;14.492;2023-10-13T16:17:41;20.80;99.90